KBTM

Bert Mooney Airport

Butte, Montana, USA
KBTM 160520Z 1606/1706 14005KT P6SM SCT250 FM162200 18006KT P6SM BKN200
Issued Valid From Valid To
Dec-16 @ 05:20 UTC
(38 minutes ago)
Dec-16 @ 06:00 UTC
(in 2 minutes)
Dec-17 @ 06:00 UTC
(in 24 hours)
Dec-16 @ 06:00 to Dec-16 @ 22:00
KBTM 160520Z 1606/1706 14005KT P6SM SCT250
Wind Visibility Clouds
140° at 5 knots Greater than 6 miles
  • Scattered at 25,000' AGL
From Dec-16 @ 22:00 to Dec-17 @ 06:00
FM162200 18006KT P6SM BKN200
Wind Visibility Clouds
180° at 6 knots Greater than 6 miles
  • Broken at 20,000' AGL
KBTM 160520Z 1606/1706 14005KT P6SM SCT250 FM162200 18006KT P6SM BKN200
Issued Dec-16 @ 05:20 UTC
(38 minutes ago)
Valid From Dec-16 @ 06:00 UTC
(in 2 minutes)
Valid To Dec-17 @ 06:00 UTC
(in 24 hours)
Dec-16 @ 06:00 - Dec-16 @ 22:00
Wind Visibility
140° at 5 knots Greater than 6 miles
Clouds
  • Scattered at 25,000' AGL
From Dec-16 @ 22:00 - Dec-17 @ 06:00
Wind Visibility
180° at 6 knots Greater than 6 miles
Clouds
  • Broken at 20,000' AGL